createdAt,value
2018-04-30T00:00:42.867Z,7.83
2018-04-30T00:05:45.297Z,6.30
2018-04-30T00:10:47.752Z,11.77
2018-04-30T00:15:50.213Z,8.13
2018-04-30T00:20:52.667Z,8.03
2018-04-30T00:25:55.113Z,7.23
2018-04-30T00:30:57.559Z,8.73
2018-04-30T00:47:01.062Z,9.60
2018-04-30T00:52:03.530Z,9.87
2018-04-30T00:57:06.749Z,8.90
2018-04-30T01:02:09.222Z,7.00
2018-04-30T01:07:12.465Z,10.53
2018-04-30T01:12:18.686Z,7.07
2018-04-30T01:17:21.164Z,8.00
2018-04-30T01:22:23.664Z,12.30
2018-04-30T01:27:26.267Z,8.70
2018-04-30T01:32:28.730Z,9.17
2018-04-30T01:37:31.945Z,10.87
2018-04-30T01:42:34.538Z,8.67
2018-04-30T01:47:40.088Z,8.77
2018-04-30T01:52:42.594Z,10.60
2018-04-30T01:57:45.049Z,9.20
2018-04-30T02:02:48.266Z,10.87
2018-04-30T02:07:51.591Z,10.00
2018-04-30T02:12:54.040Z,8.47
2018-04-30T02:17:56.602Z,10.50
2018-04-30T02:22:59.043Z,11.43
2018-04-30T02:28:02.257Z,9.17
2018-04-30T02:33:05.472Z,8.87
2018-04-30T02:38:08.680Z,9.77
2018-04-30T02:43:11.900Z,11.00
2018-04-30T02:48:15.303Z,12.90
2018-04-30T02:53:18.514Z,11.50
2018-04-30T02:58:21.752Z,12.60
2018-04-30T03:03:24.306Z,12.50
2018-04-30T03:08:26.849Z,12.10
2018-04-30T03:13:29.329Z,10.60
2018-04-30T03:18:31.823Z,13.63
2018-04-30T03:23:34.271Z,11.97
2018-04-30T03:28:38.861Z,11.40
2018-04-30T03:33:41.327Z,11.27
2018-04-30T03:38:44.543Z,13.97
2018-04-30T03:43:47.759Z,12.53
2018-04-30T03:49:01.899Z,11.00
2018-04-30T03:59:29.630Z,12.33
2018-04-30T04:04:45.306Z,12.67
2018-04-30T04:09:47.761Z,16.33
2018-04-30T04:14:50.231Z,17.53
2018-04-30T04:20:00.030Z,20.03
2018-04-30T04:25:02.484Z,16.50
2018-04-30T04:30:04.969Z,19.37
2018-04-30T04:35:08.182Z,18.70
2018-04-30T04:40:12.585Z,20.73
2018-04-30T04:45:15.835Z,21.33
2018-04-30T04:50:31.978Z,20.37
2018-04-30T04:55:39.598Z,20.43
2018-04-30T05:00:42.060Z,18.63
2018-04-30T05:05:45.287Z,19.33
2018-04-30T05:11:00.542Z,19.03
2018-04-30T05:16:05.992Z,19.43
2018-04-30T05:21:08.466Z,21.10
2018-04-30T05:26:10.925Z,22.47
2018-04-30T05:31:13.393Z,22.10
2018-04-30T05:36:16.607Z,19.27
2018-04-30T05:41:19.822Z,20.70
2018-04-30T05:46:22.279Z,20.33
2018-04-30T05:51:26.244Z,21.77
2018-04-30T05:56:28.688Z,21.83
2018-04-30T06:01:32.060Z,22.37
2018-04-30T06:06:34.629Z,19.13
2018-04-30T06:11:37.859Z,19.30
2018-04-30T06:16:41.078Z,12.03
2018-04-30T06:21:43.529Z,11.37
2018-04-30T06:26:46.027Z,2.23
2018-04-30T06:31:48.433Z,1.83
2018-04-30T06:36:51.765Z,1.83
2018-04-30T06:41:54.245Z,0.70
2018-04-30T06:46:57.471Z,0.73
2018-04-30T06:51:59.909Z,1.93
2018-04-30T06:57:02.351Z,3.97
2018-04-30T07:02:04.797Z,0.50
2018-04-30T07:14:57.463Z,0.73
2018-04-30T07:20:06.115Z,0.70
2018-04-30T07:25:08.566Z,1.07
2018-04-30T07:30:11.802Z,0.60
2018-04-30T07:35:15.050Z,0.93
2018-04-30T07:40:17.500Z,0.60
2018-04-30T07:45:19.943Z,2.87
2018-04-30T07:50:22.398Z,3.40
2018-04-30T07:55:24.846Z,0.90
2018-04-30T08:00:27.294Z,0.43
2018-04-30T08:05:29.745Z,0.50
2018-04-30T08:10:32.955Z,0.50
2018-04-30T08:15:36.192Z,0.63
2018-04-30T08:20:38.646Z,0.70
2018-04-30T08:25:41.101Z,0.40
2018-04-30T08:30:43.543Z,1.60
2018-04-30T08:35:46.846Z,0.73
2018-04-30T08:40:51.691Z,2.10
2018-04-30T08:45:54.136Z,0.87
2018-04-30T08:50:57.197Z,0.93
2018-04-30T08:56:00.460Z,0.20
2018-04-30T09:01:02.905Z,1.50
2018-04-30T09:06:06.121Z,2.47
2018-04-30T09:11:09.330Z,1.50
2018-04-30T09:16:11.778Z,0.73
2018-04-30T09:21:14.242Z,1.90
2018-04-30T09:26:16.699Z,1.63
2018-04-30T09:31:19.907Z,1.63
2018-04-30T09:36:31.025Z,0.50
2018-04-30T09:41:33.605Z,1.73
2018-04-30T09:46:36.802Z,0.40
2018-04-30T09:51:40.174Z,2.10
2018-04-30T09:56:42.614Z,1.90
2018-04-30T10:01:46.747Z,0.87
2018-04-30T10:06:49.210Z,1.47
2018-04-30T10:11:57.864Z,0.93
2018-04-30T10:17:00.325Z,4.53
2018-04-30T10:22:02.771Z,0.60
2018-04-30T10:27:06.319Z,0.70
2018-04-30T10:32:09.591Z,3.50
2018-04-30T10:37:12.797Z,1.20
2018-04-30T10:42:16.161Z,1.47
2018-04-30T10:47:18.595Z,1.13
2018-04-30T10:52:21.817Z,0.93
2018-04-30T10:57:25.041Z,1.50
2018-04-30T11:02:40.027Z,0.70
2018-04-30T11:07:42.623Z,1.87
2018-04-30T11:12:46.958Z,1.83
2018-04-30T11:17:49.649Z,3.43
2018-04-30T11:22:59.960Z,3.30
2018-04-30T11:28:02.470Z,0.90
2018-04-30T11:33:04.934Z,0.73
2018-04-30T11:38:07.394Z,1.00
2018-04-30T11:43:10.632Z,1.60
2018-04-30T11:48:13.096Z,0.80
2018-04-30T11:53:16.303Z,0.60
2018-04-30T11:58:19.508Z,0.57
2018-04-30T12:03:22.828Z,1.20
2018-04-30T12:08:25.797Z,1.73
2018-04-30T12:13:28.250Z,1.00
2018-04-30T12:18:30.703Z,1.97
2018-04-30T12:23:36.531Z,0.47
2018-04-30T12:28:39.025Z,2.30
2018-04-30T12:33:41.506Z,0.87
2018-04-30T12:38:43.963Z,0.83
2018-04-30T12:43:46.492Z,1.63
2018-04-30T12:48:48.866Z,0.50
2018-04-30T12:53:51.315Z,1.73
2018-04-30T12:58:53.776Z,1.53
2018-04-30T13:03:56.226Z,4.93
2018-04-30T13:08:59.521Z,0.57
2018-04-30T13:14:02.665Z,0.73
2018-04-30T13:19:05.109Z,0.73
2018-04-30T13:24:07.559Z,0.60
2018-04-30T13:29:10.051Z,0.70
2018-04-30T13:34:12.498Z,0.93
2018-04-30T13:39:14.989Z,0.53
2018-04-30T13:44:30.470Z,0.87
2018-04-30T13:49:32.944Z,0.80
2018-04-30T13:54:35.425Z,0.60
2018-04-30T13:59:37.827Z,0.53
2018-04-30T14:04:40.275Z,0.50
2018-04-30T14:09:43.478Z,0.73
2018-04-30T14:15:05.749Z,2.73
2018-04-30T14:20:09.180Z,3.33
2018-04-30T14:25:12.461Z,2.80
2018-04-30T14:30:15.690Z,3.53
2018-04-30T14:35:19.041Z,1.60
2018-04-30T14:40:21.518Z,0.83
2018-04-30T14:45:24.105Z,0.43
2018-04-30T14:50:26.547Z,2.37
2018-04-30T14:55:28.985Z,0.63
2018-04-30T15:00:31.490Z,1.70
2018-04-30T15:05:33.937Z,0.77
2018-04-30T15:10:43.462Z,0.83
2018-04-30T15:15:45.922Z,0.50
2018-04-30T15:20:48.370Z,1.00
2018-04-30T15:25:50.819Z,1.20
2018-04-30T15:30:53.266Z,2.50
2018-04-30T15:35:56.587Z,0.73
2018-04-30T15:40:58.954Z,0.83
2018-04-30T15:46:01.399Z,0.50
2018-04-30T15:51:06.882Z,1.00
2018-04-30T15:56:09.826Z,0.83
2018-04-30T16:01:17.124Z,1.50
2018-04-30T16:11:26.760Z,1.90
2018-04-30T16:16:29.350Z,1.37
2018-04-30T16:21:32.693Z,2.03
2018-04-30T16:26:35.255Z,2.10
2018-04-30T16:31:38.628Z,0.70
2018-04-30T16:36:42.607Z,2.67
2018-04-30T16:41:45.041Z,5.57
2018-04-30T16:46:48.170Z,3.17
2018-04-30T16:51:50.683Z,1.10
2018-04-30T16:56:53.591Z,1.27
2018-04-30T17:01:57.305Z,0.50
2018-04-30T17:07:01.142Z,0.20
2018-04-30T17:12:04.547Z,0.37
2018-04-30T17:17:17.652Z,2.23
2018-04-30T17:22:20.102Z,3.80
2018-04-30T17:27:22.553Z,1.77
2018-04-30T17:32:25.005Z,0.43
2018-04-30T17:37:27.465Z,0.40
2018-04-30T17:42:30.703Z,0.60
2018-04-30T17:47:33.163Z,0.20
2018-04-30T17:52:36.370Z,0.40
2018-04-30T17:57:42.260Z,0.30
2018-04-30T18:02:44.840Z,1.37
2018-04-30T18:07:50.653Z,0.23
2018-04-30T18:18:09.354Z,2.10
2018-04-30T18:23:11.814Z,0.40
2018-04-30T18:28:15.048Z,1.87
2018-04-30T18:33:17.557Z,0.40
2018-04-30T18:38:20.760Z,1.63
2018-04-30T18:43:23.222Z,3.03
2018-04-30T18:48:49.900Z,0.70
2018-04-30T18:53:52.413Z,1.87
2018-04-30T18:58:54.876Z,3.23
2018-04-30T19:03:57.363Z,1.00
2018-04-30T19:09:14.950Z,0.40
2018-04-30T19:14:17.562Z,0.63
2018-04-30T19:19:20.041Z,0.30
2018-04-30T19:24:22.506Z,0.37
2018-04-30T19:29:24.959Z,0.40
2018-04-30T19:34:44.754Z,0.50
2018-04-30T19:39:47.231Z,0.30
2018-04-30T19:44:49.686Z,0.60
2018-04-30T19:49:52.145Z,0.70
2018-04-30T19:54:55.455Z,0.43
2018-04-30T19:59:57.898Z,0.50
2018-04-30T20:05:00.358Z,0.73
2018-04-30T20:10:15.195Z,2.13
2018-04-30T20:15:17.651Z,0.60
2018-04-30T20:20:20.150Z,1.97
2018-04-30T20:25:22.541Z,0.70
2018-04-30T20:30:24.995Z,0.60
2018-04-30T20:35:28.220Z,1.70
2018-04-30T20:40:31.435Z,0.57
2018-04-30T20:45:33.889Z,0.50
2018-04-30T20:50:39.653Z,0.40
2018-04-30T20:55:42.161Z,0.40
2018-04-30T21:00:44.608Z,2.20
2018-04-30T21:05:58.446Z,0.37
2018-04-30T21:11:00.924Z,2.67
2018-04-30T21:16:04.129Z,0.60
2018-04-30T21:21:21.416Z,9.50
2018-04-30T21:26:23.853Z,1.87
2018-04-30T21:31:27.066Z,4.03
2018-04-30T21:36:30.791Z,4.50
2018-04-30T21:41:34.315Z,0.20
2018-04-30T21:46:37.526Z,0.83
2018-04-30T21:51:40.749Z,1.10
2018-04-30T21:56:43.193Z,0.30
2018-04-30T22:01:48.431Z,0.50
2018-04-30T22:06:50.981Z,0.30
2018-04-30T22:11:54.186Z,0.43
2018-04-30T22:16:57.401Z,0.30
2018-04-30T22:22:00.629Z,0.20
2018-04-30T22:27:03.813Z,1.07
2018-04-30T22:32:06.835Z,0.23
2018-04-30T22:37:09.312Z,3.80
2018-04-30T22:42:11.770Z,2.27
2018-04-30T22:47:14.226Z,2.10
2018-04-30T22:52:16.668Z,3.50
2018-04-30T22:57:19.115Z,2.73
2018-04-30T23:02:21.563Z,1.23
2018-04-30T23:07:24.014Z,4.80
2018-04-30T23:12:26.467Z,1.17
2018-04-30T23:17:31.718Z,1.30
2018-04-30T23:22:36.975Z,0.30
2018-04-30T23:27:47.580Z,1.70
2018-04-30T23:32:50.072Z,0.20
2018-04-30T23:37:52.518Z,0.73
2018-04-30T23:42:54.970Z,0.30
2018-04-30T23:47:57.427Z,0.20
2018-04-30T23:53:01.415Z,0.93
2018-04-30T23:58:03.938Z,0.20
